sensor_id;sensor_type;location;lat;lon;timestamp;P1;durP1;ratioP1;P2;durP2;ratioP2
24409;SDS011;12543;53.364;-1.504;2024-03-02T00:00:31;19.53;;;11.27;;
24409;SDS011;12543;53.364;-1.504;2024-03-02T00:02:59;21.92;;;12.88;;
24409;SDS011;12543;53.364;-1.504;2024-03-02T00:05:27;16.73;;;11.48;;
24409;SDS011;12543;53.364;-1.504;2024-03-02T00:07:55;16.73;;;10.13;;
24409;SDS011;12543;53.364;-1.504;2024-03-02T00:12:51;14.77;;;9.90;;
24409;SDS011;12543;53.364;-1.504;2024-03-02T00:18:06;13.77;;;8.85;;
24409;SDS011;12543;53.364;-1.504;2024-03-02T00:20:33;11.98;;;8.93;;
24409;SDS011;12543;53.364;-1.504;2024-03-02T00:23:05;11.13;;;7.70;;
24409;SDS011;12543;53.364;-1.504;2024-03-02T00:25:52;10.52;;;8.00;;
24409;SDS011;12543;53.364;-1.504;2024-03-02T00:28:27;11.95;;;7.97;;
24409;SDS011;12543;53.364;-1.504;2024-03-02T00:30:58;11.75;;;7.75;;
24409;SDS011;12543;53.364;-1.504;2024-03-02T00:33:27;10.55;;;7.55;;
24409;SDS011;12543;53.364;-1.504;2024-03-02T00:35:55;10.10;;;7.63;;
24409;SDS011;12543;53.364;-1.504;2024-03-02T00:38:22;12.50;;;8.68;;
24409;SDS011;12543;53.364;-1.504;2024-03-02T00:40:50;11.77;;;8.57;;
24409;SDS011;12543;53.364;-1.504;2024-03-02T00:46:00;11.98;;;8.00;;
24409;SDS011;12543;53.364;-1.504;2024-03-02T00:48:28;13.00;;;8.98;;
24409;SDS011;12543;53.364;-1.504;2024-03-02T00:50:58;12.10;;;9.38;;
24409;SDS011;12543;53.364;-1.504;2024-03-02T00:53:25;12.75;;;9.50;;
24409;SDS011;12543;53.364;-1.504;2024-03-02T00:55:53;14.30;;;10.30;;
24409;SDS011;12543;53.364;-1.504;2024-03-02T00:58:21;15.93;;;10.30;;
24409;SDS011;12543;53.364;-1.504;2024-03-02T01:00:48;12.35;;;9.07;;
24409;SDS011;12543;53.364;-1.504;2024-03-02T01:03:16;13.20;;;10.47;;
24409;SDS011;12543;53.364;-1.504;2024-03-02T01:05:44;16.20;;;9.55;;
24409;SDS011;12543;53.364;-1.504;2024-03-02T01:08:12;13.00;;;9.63;;
24409;SDS011;12543;53.364;-1.504;2024-03-02T01:10:40;15.43;;;9.80;;
24409;SDS011;12543;53.364;-1.504;2024-03-02T01:13:07;12.93;;;9.27;;
24409;SDS011;12543;53.364;-1.504;2024-03-02T01:15:35;12.93;;;9.35;;
24409;SDS011;12543;53.364;-1.504;2024-03-02T01:18:03;16.57;;;10.17;;
24409;SDS011;12543;53.364;-1.504;2024-03-02T01:20:33;14.57;;;10.63;;
24409;SDS011;12543;53.364;-1.504;2024-03-02T01:23:01;14.27;;;10.07;;
24409;SDS011;12543;53.364;-1.504;2024-03-02T01:25:29;15.10;;;10.35;;
24409;SDS011;12543;53.364;-1.504;2024-03-02T01:28:00;16.23;;;9.95;;
24409;SDS011;12543;53.364;-1.504;2024-03-02T01:30:27;16.58;;;10.23;;
24409;SDS011;12543;53.364;-1.504;2024-03-02T01:32:55;14.95;;;9.98;;
24409;SDS011;12543;53.364;-1.504;2024-03-02T01:35:22;25.33;;;11.48;;
24409;SDS011;12543;53.364;-1.504;2024-03-02T01:37:50;29.80;;;12.30;;
24409;SDS011;12543;53.364;-1.504;2024-03-02T01:40:17;27.20;;;12.40;;
24409;SDS011;12543;53.364;-1.504;2024-03-02T01:42:45;18.27;;;10.33;;
24409;SDS011;12543;53.364;-1.504;2024-03-02T01:45:13;19.70;;;10.77;;
24409;SDS011;12543;53.364;-1.504;2024-03-02T01:47:40;24.33;;;11.47;;
24409;SDS011;12543;53.364;-1.504;2024-03-02T01:50:08;44.83;;;14.98;;
24409;SDS011;12543;53.364;-1.504;2024-03-02T01:52:36;34.63;;;13.95;;
24409;SDS011;12543;53.364;-1.504;2024-03-02T01:55:04;21.73;;;11.38;;
24409;SDS011;12543;53.364;-1.504;2024-03-02T01:57:33;22.60;;;11.77;;
24409;SDS011;12543;53.364;-1.504;2024-03-02T02:00:01;17.13;;;10.88;;
24409;SDS011;12543;53.364;-1.504;2024-03-02T02:02:37;16.38;;;9.60;;
24409;SDS011;12543;53.364;-1.504;2024-03-02T02:05:04;14.38;;;10.13;;
24409;SDS011;12543;53.364;-1.504;2024-03-02T02:07:32;14.77;;;10.77;;
24409;SDS011;12543;53.364;-1.504;2024-03-02T02:10:01;13.27;;;9.55;;
24409;SDS011;12543;53.364;-1.504;2024-03-02T02:12:29;13.10;;;9.53;;
24409;SDS011;12543;53.364;-1.504;2024-03-02T02:14:56;13.60;;;9.10;;
24409;SDS011;12543;53.364;-1.504;2024-03-02T02:17:24;13.88;;;9.10;;
24409;SDS011;12543;53.364;-1.504;2024-03-02T02:19:52;12.60;;;8.50;;
24409;SDS011;12543;53.364;-1.504;2024-03-02T02:22:19;9.50;;;7.33;;
24409;SDS011;12543;53.364;-1.504;2024-03-02T02:24:47;13.93;;;7.55;;
24409;SDS011;12543;53.364;-1.504;2024-03-02T02:27:15;8.05;;;6.32;;
24409;SDS011;12543;53.364;-1.504;2024-03-02T02:29:42;9.18;;;6.97;;
24409;SDS011;12543;53.364;-1.504;2024-03-02T02:32:10;9.90;;;7.20;;
24409;SDS011;12543;53.364;-1.504;2024-03-02T02:34:37;9.45;;;6.80;;
24409;SDS011;12543;53.364;-1.504;2024-03-02T02:37:05;7.97;;;6.35;;
24409;SDS011;12543;53.364;-1.504;2024-03-02T02:39:32;8.25;;;6.57;;
24409;SDS011;12543;53.364;-1.504;2024-03-02T02:42:00;9.33;;;7.07;;
24409;SDS011;12543;53.364;-1.504;2024-03-02T02:44:29;10.27;;;6.75;;
24409;SDS011;12543;53.364;-1.504;2024-03-02T02:46:56;10.07;;;7.07;;
24409;SDS011;12543;53.364;-1.504;2024-03-02T02:49:24;8.43;;;6.63;;
24409;SDS011;12543;53.364;-1.504;2024-03-02T02:51:51;8.38;;;6.75;;
24409;SDS011;12543;53.364;-1.504;2024-03-02T02:54:19;8.93;;;7.20;;
24409;SDS011;12543;53.364;-1.504;2024-03-02T02:56:47;10.57;;;7.95;;
24409;SDS011;12543;53.364;-1.504;2024-03-02T02:59:14;10.77;;;8.15;;
24409;SDS011;12543;53.364;-1.504;2024-03-02T03:01:42;10.38;;;8.23;;
24409;SDS011;12543;53.364;-1.504;2024-03-02T03:04:09;11.60;;;8.13;;
24409;SDS011;12543;53.364;-1.504;2024-03-02T03:06:37;11.73;;;8.00;;
24409;SDS011;12543;53.364;-1.504;2024-03-02T03:09:04;9.40;;;7.40;;
24409;SDS011;12543;53.364;-1.504;2024-03-02T03:11:32;10.25;;;7.72;;
24409;SDS011;12543;53.364;-1.504;2024-03-02T03:13:59;8.57;;;7.47;;
24409;SDS011;12543;53.364;-1.504;2024-03-02T03:16:28;10.95;;;9.10;;
24409;SDS011;12543;53.364;-1.504;2024-03-02T03:18:56;9.32;;;8.00;;
24409;SDS011;12543;53.364;-1.504;2024-03-02T03:21:23;10.18;;;8.18;;
24409;SDS011;12543;53.364;-1.504;2024-03-02T03:23:51;8.98;;;7.82;;
24409;SDS011;12543;53.364;-1.504;2024-03-02T03:26:19;10.80;;;8.27;;
24409;SDS011;12543;53.364;-1.504;2024-03-02T03:28:48;13.65;;;8.02;;
24409;SDS011;12543;53.364;-1.504;2024-03-02T03:31:15;10.15;;;8.05;;
24409;SDS011;12543;53.364;-1.504;2024-03-02T03:33:43;8.38;;;7.57;;
24409;SDS011;12543;53.364;-1.504;2024-03-02T03:36:10;11.40;;;7.78;;
24409;SDS011;12543;53.364;-1.504;2024-03-02T03:38:38;9.93;;;7.35;;
24409;SDS011;12543;53.364;-1.504;2024-03-02T03:41:05;9.20;;;7.75;;
24409;SDS011;12543;53.364;-1.504;2024-03-02T03:43:33;10.25;;;7.72;;
24409;SDS011;12543;53.364;-1.504;2024-03-02T03:46:00;10.32;;;8.38;;
24409;SDS011;12543;53.364;-1.504;2024-03-02T03:50:57;12.50;;;9.45;;
24409;SDS011;12543;53.364;-1.504;2024-03-02T03:53:24;11.40;;;8.07;;
24409;SDS011;12543;53.364;-1.504;2024-03-02T03:55:52;9.73;;;8.50;;
24409;SDS011;12543;53.364;-1.504;2024-03-02T03:58:19;10.27;;;8.65;;
24409;SDS011;12543;53.364;-1.504;2024-03-02T04:00:48;11.32;;;8.73;;
24409;SDS011;12543;53.364;-1.504;2024-03-02T04:03:16;11.00;;;8.52;;
24409;SDS011;12543;53.364;-1.504;2024-03-02T04:05:43;11.50;;;9.53;;
24409;SDS011;12543;53.364;-1.504;2024-03-02T04:08:11;10.98;;;9.30;;
24409;SDS011;12543;53.364;-1.504;2024-03-02T04:10:39;12.73;;;10.27;;
24409;SDS011;12543;53.364;-1.504;2024-03-02T04:13:08;12.52;;;10.10;;
24409;SDS011;12543;53.364;-1.504;2024-03-02T04:15:36;10.68;;;9.45;;
24409;SDS011;12543;53.364;-1.504;2024-03-02T04:18:04;11.00;;;9.15;;
24409;SDS011;12543;53.364;-1.504;2024-03-02T04:20:31;11.50;;;9.33;;
24409;SDS011;12543;53.364;-1.504;2024-03-02T04:22:59;14.37;;;9.80;;
24409;SDS011;12543;53.364;-1.504;2024-03-02T04:25:26;11.48;;;9.73;;
24409;SDS011;12543;53.364;-1.504;2024-03-02T04:27:54;13.00;;;9.97;;
24409;SDS011;12543;53.364;-1.504;2024-03-02T04:30:22;14.25;;;10.25;;
24409;SDS011;12543;53.364;-1.504;2024-03-02T04:32:49;12.67;;;10.03;;
24409;SDS011;12543;53.364;-1.504;2024-03-02T04:35:17;13.20;;;10.52;;
24409;SDS011;12543;53.364;-1.504;2024-03-02T04:37:44;13.50;;;10.35;;
24409;SDS011;12543;53.364;-1.504;2024-03-02T04:40:12;14.25;;;10.10;;
24409;SDS011;12543;53.364;-1.504;2024-03-02T04:42:39;13.20;;;11.15;;
24409;SDS011;12543;53.364;-1.504;2024-03-02T04:45:07;12.63;;;10.50;;
24409;SDS011;12543;53.364;-1.504;2024-03-02T04:47:34;12.75;;;10.40;;
24409;SDS011;12543;53.364;-1.504;2024-03-02T04:50:02;12.70;;;11.37;;
24409;SDS011;12543;53.364;-1.504;2024-03-02T04:52:30;17.95;;;12.68;;
24409;SDS011;12543;53.364;-1.504;2024-03-02T04:54:57;15.93;;;13.88;;
24409;SDS011;12543;53.364;-1.504;2024-03-02T04:57:51;16.95;;;13.00;;
24409;SDS011;12543;53.364;-1.504;2024-03-02T05:00:21;15.40;;;13.27;;
24409;SDS011;12543;53.364;-1.504;2024-03-02T05:02:49;15.60;;;13.20;;
24409;SDS011;12543;53.364;-1.504;2024-03-02T05:05:17;15.63;;;12.48;;
24409;SDS011;12543;53.364;-1.504;2024-03-02T05:07:45;16.83;;;13.63;;
24409;SDS011;12543;53.364;-1.504;2024-03-02T05:10:12;19.17;;;14.93;;
24409;SDS011;12543;53.364;-1.504;2024-03-02T05:12:41;17.60;;;14.55;;
24409;SDS011;12543;53.364;-1.504;2024-03-02T05:15:09;19.13;;;15.43;;
24409;SDS011;12543;53.364;-1.504;2024-03-02T05:17:37;21.45;;;16.60;;
24409;SDS011;12543;53.364;-1.504;2024-03-02T05:20:05;21.50;;;16.58;;
24409;SDS011;12543;53.364;-1.504;2024-03-02T05:22:34;20.17;;;15.63;;
24409;SDS011;12543;53.364;-1.504;2024-03-02T05:25:05;18.67;;;16.65;;
24409;SDS011;12543;53.364;-1.504;2024-03-02T05:27:33;19.27;;;15.75;;
24409;SDS011;12543;53.364;-1.504;2024-03-02T05:30:01;19.75;;;16.30;;
24409;SDS011;12543;53.364;-1.504;2024-03-02T05:32:28;19.60;;;16.55;;
24409;SDS011;12543;53.364;-1.504;2024-03-02T05:34:56;21.47;;;16.93;;
24409;SDS011;12543;53.364;-1.504;2024-03-02T05:37:23;19.05;;;17.00;;
24409;SDS011;12543;53.364;-1.504;2024-03-02T05:39:51;22.10;;;18.83;;
24409;SDS011;12543;53.364;-1.504;2024-03-02T05:42:18;21.75;;;18.02;;
24409;SDS011;12543;53.364;-1.504;2024-03-02T05:44:46;21.27;;;18.00;;
24409;SDS011;12543;53.364;-1.504;2024-03-02T05:47:14;20.40;;;16.90;;
24409;SDS011;12543;53.364;-1.504;2024-03-02T05:49:42;17.50;;;15.30;;
24409;SDS011;12543;53.364;-1.504;2024-03-02T05:52:10;17.98;;;14.27;;
24409;SDS011;12543;53.364;-1.504;2024-03-02T05:54:38;17.02;;;14.00;;
24409;SDS011;12543;53.364;-1.504;2024-03-02T05:57:06;17.42;;;13.68;;
24409;SDS011;12543;53.364;-1.504;2024-03-02T06:00:03;18.85;;;14.45;;
24409;SDS011;12543;53.364;-1.504;2024-03-02T06:02:41;21.67;;;15.10;;
24409;SDS011;12543;53.364;-1.504;2024-03-02T06:05:13;19.10;;;15.27;;
24409;SDS011;12543;53.364;-1.504;2024-03-02T06:10:09;17.83;;;14.57;;
24409;SDS011;12543;53.364;-1.504;2024-03-02T06:12:40;20.25;;;15.77;;
24409;SDS011;12543;53.364;-1.504;2024-03-02T06:15:08;20.58;;;15.98;;
24409;SDS011;12543;53.364;-1.504;2024-03-02T06:17:35;19.77;;;16.07;;
24409;SDS011;12543;53.364;-1.504;2024-03-02T06:20:03;19.23;;;15.70;;
24409;SDS011;12543;53.364;-1.504;2024-03-02T06:22:30;21.23;;;17.17;;
24409;SDS011;12543;53.364;-1.504;2024-03-02T06:24:58;21.43;;;17.03;;
24409;SDS011;12543;53.364;-1.504;2024-03-02T06:27:26;20.97;;;16.50;;
24409;SDS011;12543;53.364;-1.504;2024-03-02T06:29:53;21.05;;;16.13;;
24409;SDS011;12543;53.364;-1.504;2024-03-02T06:32:21;19.80;;;16.43;;
24409;SDS011;12543;53.364;-1.504;2024-03-02T06:34:51;17.70;;;14.80;;
24409;SDS011;12543;53.364;-1.504;2024-03-02T06:37:18;21.90;;;16.07;;
24409;SDS011;12543;53.364;-1.504;2024-03-02T06:39:46;18.98;;;15.32;;
24409;SDS011;12543;53.364;-1.504;2024-03-02T06:42:13;18.65;;;15.07;;
24409;SDS011;12543;53.364;-1.504;2024-03-02T06:44:41;19.77;;;15.15;;
24409;SDS011;12543;53.364;-1.504;2024-03-02T06:47:08;20.20;;;15.90;;
24409;SDS011;12543;53.364;-1.504;2024-03-02T06:49:36;16.73;;;14.67;;
24409;SDS011;12543;53.364;-1.504;2024-03-02T06:52:04;17.15;;;13.75;;
24409;SDS011;12543;53.364;-1.504;2024-03-02T06:54:31;20.83;;;14.55;;
24409;SDS011;12543;53.364;-1.504;2024-03-02T06:56:59;18.08;;;14.25;;
24409;SDS011;12543;53.364;-1.504;2024-03-02T06:59:26;18.23;;;14.15;;
24409;SDS011;12543;53.364;-1.504;2024-03-02T07:01:54;15.95;;;12.65;;
24409;SDS011;12543;53.364;-1.504;2024-03-02T07:04:22;18.67;;;13.63;;
24409;SDS011;12543;53.364;-1.504;2024-03-02T07:06:49;21.50;;;14.90;;
24409;SDS011;12543;53.364;-1.504;2024-03-02T07:09:17;20.58;;;15.43;;
24409;SDS011;12543;53.364;-1.504;2024-03-02T07:11:49;20.30;;;16.65;;
24409;SDS011;12543;53.364;-1.504;2024-03-02T07:16:47;21.52;;;16.65;;
24409;SDS011;12543;53.364;-1.504;2024-03-02T07:19:15;22.77;;;17.48;;
24409;SDS011;12543;53.364;-1.504;2024-03-02T07:21:43;21.07;;;16.87;;
24409;SDS011;12543;53.364;-1.504;2024-03-02T07:24:10;21.95;;;17.70;;
24409;SDS011;12543;53.364;-1.504;2024-03-02T07:26:39;21.45;;;17.33;;
24409;SDS011;12543;53.364;-1.504;2024-03-02T07:29:10;22.40;;;17.70;;
24409;SDS011;12543;53.364;-1.504;2024-03-02T07:31:37;21.45;;;17.67;;
24409;SDS011;12543;53.364;-1.504;2024-03-02T07:34:05;21.40;;;17.38;;
24409;SDS011;12543;53.364;-1.504;2024-03-02T07:36:32;18.47;;;15.63;;
24409;SDS011;12543;53.364;-1.504;2024-03-02T07:39:00;19.33;;;14.80;;
24409;SDS011;12543;53.364;-1.504;2024-03-02T07:41:27;17.10;;;15.07;;
24409;SDS011;12543;53.364;-1.504;2024-03-02T07:43:55;22.08;;;15.93;;
24409;SDS011;12543;53.364;-1.504;2024-03-02T07:46:23;21.05;;;16.50;;
24409;SDS011;12543;53.364;-1.504;2024-03-02T07:48:51;19.33;;;15.27;;
24409;SDS011;12543;53.364;-1.504;2024-03-02T07:51:20;20.48;;;15.30;;
24409;SDS011;12543;53.364;-1.504;2024-03-02T07:53:48;24.10;;;16.05;;
24409;SDS011;12543;53.364;-1.504;2024-03-02T07:56:16;17.67;;;14.55;;
24409;SDS011;12543;53.364;-1.504;2024-03-02T07:58:49;17.85;;;14.43;;
24409;SDS011;12543;53.364;-1.504;2024-03-02T08:01:16;16.23;;;13.77;;
24409;SDS011;12543;53.364;-1.504;2024-03-02T08:03:44;18.75;;;14.75;;
24409;SDS011;12543;53.364;-1.504;2024-03-02T08:06:14;19.25;;;15.23;;
24409;SDS011;12543;53.364;-1.504;2024-03-02T08:08:42;16.37;;;14.57;;
24409;SDS011;12543;53.364;-1.504;2024-03-02T08:11:10;17.27;;;13.67;;
24409;SDS011;12543;53.364;-1.504;2024-03-02T08:13:48;15.98;;;13.82;;
24409;SDS011;12543;53.364;-1.504;2024-03-02T08:16:16;14.68;;;13.18;;
24409;SDS011;12543;53.364;-1.504;2024-03-02T08:18:47;15.75;;;13.00;;
24409;SDS011;12543;53.364;-1.504;2024-03-02T08:23:42;15.30;;;13.32;;
24409;SDS011;12543;53.364;-1.504;2024-03-02T08:26:10;15.60;;;13.20;;
24409;SDS011;12543;53.364;-1.504;2024-03-02T08:28:38;13.75;;;12.20;;
24409;SDS011;12543;53.364;-1.504;2024-03-02T08:31:09;14.00;;;11.40;;
24409;SDS011;12543;53.364;-1.504;2024-03-02T08:33:37;12.98;;;11.68;;
24409;SDS011;12543;53.364;-1.504;2024-03-02T08:36:04;14.00;;;11.82;;
24409;SDS011;12543;53.364;-1.504;2024-03-02T08:38:32;13.37;;;11.30;;
24409;SDS011;12543;53.364;-1.504;2024-03-02T08:41:02;12.30;;;10.57;;
24409;SDS011;12543;53.364;-1.504;2024-03-02T08:43:33;11.35;;;10.15;;
24409;SDS011;12543;53.364;-1.504;2024-03-02T08:46:01;13.53;;;11.17;;
24409;SDS011;12543;53.364;-1.504;2024-03-02T08:48:29;12.45;;;11.13;;
24409;SDS011;12543;53.364;-1.504;2024-03-02T08:50:56;12.57;;;9.80;;
24409;SDS011;12543;53.364;-1.504;2024-03-02T08:53:26;10.93;;;9.30;;
24409;SDS011;12543;53.364;-1.504;2024-03-02T08:55:54;9.98;;;8.90;;
24409;SDS011;12543;53.364;-1.504;2024-03-02T08:58:24;12.32;;;9.00;;
24409;SDS011;12543;53.364;-1.504;2024-03-02T09:00:52;10.32;;;8.98;;
24409;SDS011;12543;53.364;-1.504;2024-03-02T09:03:20;9.27;;;8.07;;
24409;SDS011;12543;53.364;-1.504;2024-03-02T09:05:47;9.30;;;8.00;;
24409;SDS011;12543;53.364;-1.504;2024-03-02T09:08:16;7.95;;;7.15;;
24409;SDS011;12543;53.364;-1.504;2024-03-02T09:10:46;10.18;;;8.10;;
24409;SDS011;12543;53.364;-1.504;2024-03-02T09:13:14;8.55;;;7.63;;
24409;SDS011;12543;53.364;-1.504;2024-03-02T09:15:41;8.93;;;7.47;;
24409;SDS011;12543;53.364;-1.504;2024-03-02T09:18:09;7.50;;;6.70;;
24409;SDS011;12543;53.364;-1.504;2024-03-02T09:20:37;9.98;;;6.95;;
24409;SDS011;12543;53.364;-1.504;2024-03-02T09:23:04;7.57;;;6.40;;
24409;SDS011;12543;53.364;-1.504;2024-03-02T09:25:32;7.65;;;6.20;;
24409;SDS011;12543;53.364;-1.504;2024-03-02T09:27:59;9.45;;;6.38;;
24409;SDS011;12543;53.364;-1.504;2024-03-02T09:30:27;10.53;;;6.63;;
24409;SDS011;12543;53.364;-1.504;2024-03-02T09:32:55;8.45;;;6.30;;
24409;SDS011;12543;53.364;-1.504;2024-03-02T09:35:42;6.85;;;6.13;;
24409;SDS011;12543;53.364;-1.504;2024-03-02T09:38:10;7.50;;;6.22;;
24409;SDS011;12543;53.364;-1.504;2024-03-02T09:40:37;5.72;;;5.18;;
24409;SDS011;12543;53.364;-1.504;2024-03-02T09:43:05;7.38;;;5.63;;
24409;SDS011;12543;53.364;-1.504;2024-03-02T09:45:32;7.80;;;6.13;;
24409;SDS011;12543;53.364;-1.504;2024-03-02T09:48:00;6.75;;;5.20;;
24409;SDS011;12543;53.364;-1.504;2024-03-02T09:50:27;8.05;;;5.05;;
24409;SDS011;12543;53.364;-1.504;2024-03-02T09:52:55;8.95;;;4.72;;
24409;SDS011;12543;53.364;-1.504;2024-03-02T09:55:22;6.23;;;4.83;;
24409;SDS011;12543;53.364;-1.504;2024-03-02T10:00:18;8.57;;;5.00;;
24409;SDS011;12543;53.364;-1.504;2024-03-02T10:02:46;8.65;;;4.20;;
24409;SDS011;12543;53.364;-1.504;2024-03-02T10:05:25;6.93;;;4.55;;
24409;SDS011;12543;53.364;-1.504;2024-03-02T10:07:58;8.30;;;4.53;;
24409;SDS011;12543;53.364;-1.504;2024-03-02T10:10:35;5.35;;;3.70;;
24409;SDS011;12543;53.364;-1.504;2024-03-02T10:13:07;6.45;;;3.35;;
24409;SDS011;12543;53.364;-1.504;2024-03-02T10:15:35;4.40;;;3.22;;
24409;SDS011;12543;53.364;-1.504;2024-03-02T10:18:11;6.20;;;3.38;;
24409;SDS011;12543;53.364;-1.504;2024-03-02T10:20:39;5.25;;;3.25;;
24409;SDS011;12543;53.364;-1.504;2024-03-02T10:23:14;4.75;;;3.22;;
24409;SDS011;12543;53.364;-1.504;2024-03-02T10:28:20;8.13;;;2.70;;
24409;SDS011;12543;53.364;-1.504;2024-03-02T10:30:47;4.22;;;2.50;;
24409;SDS011;12543;53.364;-1.504;2024-03-02T10:33:17;4.18;;;2.28;;
24409;SDS011;12543;53.364;-1.504;2024-03-02T10:35:44;4.53;;;2.30;;
24409;SDS011;12543;53.364;-1.504;2024-03-02T10:38:12;5.07;;;2.20;;
24409;SDS011;12543;53.364;-1.504;2024-03-02T10:40:40;5.78;;;2.63;;
24409;SDS011;12543;53.364;-1.504;2024-03-02T10:43:07;6.47;;;2.30;;
24409;SDS011;12543;53.364;-1.504;2024-03-02T10:45:36;3.90;;;2.25;;
24409;SDS011;12543;53.364;-1.504;2024-03-02T10:48:04;3.92;;;2.50;;
24409;SDS011;12543;53.364;-1.504;2024-03-02T10:50:32;3.58;;;2.03;;
24409;SDS011;12543;53.364;-1.504;2024-03-02T10:52:59;4.17;;;2.00;;
24409;SDS011;12543;53.364;-1.504;2024-03-02T10:55:27;4.22;;;2.38;;
24409;SDS011;12543;53.364;-1.504;2024-03-02T11:00:26;4.43;;;2.45;;
24409;SDS011;12543;53.364;-1.504;2024-03-02T11:03:04;4.93;;;2.08;;
24409;SDS011;12543;53.364;-1.504;2024-03-02T11:05:33;6.72;;;2.45;;
24409;SDS011;12543;53.364;-1.504;2024-03-02T11:08:07;3.85;;;2.00;;
24409;SDS011;12543;53.364;-1.504;2024-03-02T11:10:36;4.13;;;2.22;;
24409;SDS011;12543;53.364;-1.504;2024-03-02T11:13:05;4.55;;;2.10;;
24409;SDS011;12543;53.364;-1.504;2024-03-02T11:15:35;4.38;;;2.15;;
24409;SDS011;12543;53.364;-1.504;2024-03-02T11:18:04;6.43;;;2.50;;
24409;SDS011;12543;53.364;-1.504;2024-03-02T11:20:38;5.18;;;2.30;;
24409;SDS011;12543;53.364;-1.504;2024-03-02T11:23:07;5.75;;;2.33;;
24409;SDS011;12543;53.364;-1.504;2024-03-02T11:25:35;4.82;;;2.13;;
24409;SDS011;12543;53.364;-1.504;2024-03-02T11:28:04;6.93;;;2.42;;
24409;SDS011;12543;53.364;-1.504;2024-03-02T11:33:02;6.50;;;1.95;;
24409;SDS011;12543;53.364;-1.504;2024-03-02T11:35:44;8.20;;;2.47;;
24409;SDS011;12543;53.364;-1.504;2024-03-02T11:38:13;6.93;;;2.63;;
24409;SDS011;12543;53.364;-1.504;2024-03-02T11:40:41;5.97;;;2.45;;
24409;SDS011;12543;53.364;-1.504;2024-03-02T11:43:09;4.07;;;2.22;;
24409;SDS011;12543;53.364;-1.504;2024-03-02T11:45:37;4.22;;;2.20;;
24409;SDS011;12543;53.364;-1.504;2024-03-02T11:48:12;5.80;;;2.00;;
24409;SDS011;12543;53.364;-1.504;2024-03-02T11:50:51;9.65;;;3.40;;
24409;SDS011;12543;53.364;-1.504;2024-03-02T11:53:19;4.63;;;2.50;;
24409;SDS011;12543;53.364;-1.504;2024-03-02T11:55:47;5.03;;;2.20;;
24409;SDS011;12543;53.364;-1.504;2024-03-02T11:58:15;3.85;;;1.98;;
24409;SDS011;12543;53.364;-1.504;2024-03-02T12:00:53;3.10;;;2.03;;
24409;SDS011;12543;53.364;-1.504;2024-03-02T12:03:22;8.20;;;2.83;;
24409;SDS011;12543;53.364;-1.504;2024-03-02T12:05:53;5.13;;;2.67;;
24409;SDS011;12543;53.364;-1.504;2024-03-02T12:11:01;5.68;;;2.45;;
24409;SDS011;12543;53.364;-1.504;2024-03-02T12:13:30;5.28;;;2.50;;
24409;SDS011;12543;53.364;-1.504;2024-03-02T12:15:58;5.18;;;2.10;;
24409;SDS011;12543;53.364;-1.504;2024-03-02T12:18:26;4.88;;;2.28;;
24409;SDS011;12543;53.364;-1.504;2024-03-02T12:20:54;5.97;;;2.80;;
24409;SDS011;12543;53.364;-1.504;2024-03-02T12:23:25;5.32;;;2.50;;
24409;SDS011;12543;53.364;-1.504;2024-03-02T12:25:53;3.70;;;2.22;;
24409;SDS011;12543;53.364;-1.504;2024-03-02T12:28:21;6.57;;;2.58;;
24409;SDS011;12543;53.364;-1.504;2024-03-02T12:30:48;5.18;;;2.55;;
24409;SDS011;12543;53.364;-1.504;2024-03-02T12:33:17;6.85;;;3.25;;
24409;SDS011;12543;53.364;-1.504;2024-03-02T12:35:45;7.63;;;3.05;;
24409;SDS011;12543;53.364;-1.504;2024-03-02T12:38:13;13.45;;;3.83;;
24409;SDS011;12543;53.364;-1.504;2024-03-02T12:40:41;5.13;;;3.08;;
24409;SDS011;12543;53.364;-1.504;2024-03-02T12:43:09;5.85;;;2.83;;
24409;SDS011;12543;53.364;-1.504;2024-03-02T12:45:37;5.03;;;2.63;;
24409;SDS011;12543;53.364;-1.504;2024-03-02T12:48:05;6.83;;;2.70;;
24409;SDS011;12543;53.364;-1.504;2024-03-02T12:50:33;3.50;;;2.00;;
24409;SDS011;12543;53.364;-1.504;2024-03-02T12:53:01;4.07;;;1.85;;
24409;SDS011;12543;53.364;-1.504;2024-03-02T12:55:29;4.45;;;2.10;;
24409;SDS011;12543;53.364;-1.504;2024-03-02T12:57:57;3.28;;;1.60;;
24409;SDS011;12543;53.364;-1.504;2024-03-02T13:00:26;5.07;;;1.60;;
24409;SDS011;12543;53.364;-1.504;2024-03-02T13:02:54;3.00;;;1.17;;
24409;SDS011;12543;53.364;-1.504;2024-03-02T13:05:32;1.88;;;0.80;;
24409;SDS011;12543;53.364;-1.504;2024-03-02T13:08:00;0.90;;;0.70;;
24409;SDS011;12543;53.364;-1.504;2024-03-02T13:10:30;0.85;;;0.50;;
24409;SDS011;12543;53.364;-1.504;2024-03-02T13:12:58;1.10;;;0.65;;
24409;SDS011;12543;53.364;-1.504;2024-03-02T13:15:26;0.50;;;0.40;;
24409;SDS011;12543;53.364;-1.504;2024-03-02T13:17:54;1.77;;;0.70;;
24409;SDS011;12543;53.364;-1.504;2024-03-02T13:20:33;0.50;;;0.50;;
24409;SDS011;12543;53.364;-1.504;2024-03-02T13:23:01;1.88;;;0.80;;
24409;SDS011;12543;53.364;-1.504;2024-03-02T13:25:28;1.02;;;0.60;;
24409;SDS011;12543;53.364;-1.504;2024-03-02T13:27:59;1.25;;;0.80;;
24409;SDS011;12543;53.364;-1.504;2024-03-02T13:30:27;1.38;;;0.90;;
24409;SDS011;12543;53.364;-1.504;2024-03-02T13:32:55;0.90;;;0.80;;
24409;SDS011;12543;53.364;-1.504;2024-03-02T13:35:22;1.10;;;1.00;;
24409;SDS011;12543;53.364;-1.504;2024-03-02T13:37:50;1.23;;;1.07;;
24409;SDS011;12543;53.364;-1.504;2024-03-02T13:40:17;1.60;;;1.10;;
24409;SDS011;12543;53.364;-1.504;2024-03-02T13:42:46;2.42;;;1.38;;
24409;SDS011;12543;53.364;-1.504;2024-03-02T13:45:14;2.77;;;1.20;;
24409;SDS011;12543;53.364;-1.504;2024-03-02T13:47:42;2.25;;;1.00;;
24409;SDS011;12543;53.364;-1.504;2024-03-02T13:50:10;1.52;;;0.82;;
24409;SDS011;12543;53.364;-1.504;2024-03-02T13:52:37;1.38;;;0.80;;
24409;SDS011;12543;53.364;-1.504;2024-03-02T13:55:05;1.05;;;0.77;;
24409;SDS011;12543;53.364;-1.504;2024-03-02T13:57:33;0.77;;;0.70;;
24409;SDS011;12543;53.364;-1.504;2024-03-02T14:00:00;1.15;;;0.80;;
24409;SDS011;12543;53.364;-1.504;2024-03-02T14:02:37;1.83;;;1.08;;
24409;SDS011;12543;53.364;-1.504;2024-03-02T14:05:05;2.35;;;0.82;;
24409;SDS011;12543;53.364;-1.504;2024-03-02T14:07:34;2.03;;;1.00;;
24409;SDS011;12543;53.364;-1.504;2024-03-02T14:10:01;2.33;;;1.00;;
24409;SDS011;12543;53.364;-1.504;2024-03-02T14:12:29;1.77;;;0.93;;
24409;SDS011;12543;53.364;-1.504;2024-03-02T14:14:57;1.88;;;0.95;;
24409;SDS011;12543;53.364;-1.504;2024-03-02T14:17:25;3.50;;;1.02;;
24409;SDS011;12543;53.364;-1.504;2024-03-02T14:19:52;2.15;;;0.80;;
24409;SDS011;12543;53.364;-1.504;2024-03-02T14:22:20;0.68;;;0.68;;
24409;SDS011;12543;53.364;-1.504;2024-03-02T14:24:48;1.10;;;1.00;;
24409;SDS011;12543;53.364;-1.504;2024-03-02T14:27:15;1.20;;;0.80;;
24409;SDS011;12543;53.364;-1.504;2024-03-02T14:30:03;3.05;;;1.10;;
24409;SDS011;12543;53.364;-1.504;2024-03-02T14:34:59;1.50;;;0.73;;
24409;SDS011;12543;53.364;-1.504;2024-03-02T14:37:26;0.70;;;0.70;;
24409;SDS011;12543;53.364;-1.504;2024-03-02T14:39:54;1.52;;;0.80;;
24409;SDS011;12543;53.364;-1.504;2024-03-02T14:42:22;1.00;;;0.70;;
24409;SDS011;12543;53.364;-1.504;2024-03-02T14:44:49;2.67;;;0.80;;
24409;SDS011;12543;53.364;-1.504;2024-03-02T14:47:17;1.60;;;1.17;;
24409;SDS011;12543;53.364;-1.504;2024-03-02T14:49:44;1.30;;;1.20;;
24409;SDS011;12543;53.364;-1.504;2024-03-02T14:52:12;1.47;;;1.10;;
24409;SDS011;12543;53.364;-1.504;2024-03-02T14:57:09;1.58;;;1.42;;
24409;SDS011;12543;53.364;-1.504;2024-03-02T14:59:37;2.22;;;1.20;;
24409;SDS011;12543;53.364;-1.504;2024-03-02T15:02:05;1.67;;;0.80;;
24409;SDS011;12543;53.364;-1.504;2024-03-02T15:07:00;1.60;;;1.00;;
24409;SDS011;12543;53.364;-1.504;2024-03-02T15:09:28;1.00;;;0.90;;